createdAt,value
2022-09-15T00:01:03.302Z,31.05
2022-09-15T00:03:30.305Z,23.98
2022-09-15T00:05:57.077Z,27.35
2022-09-15T00:08:25.187Z,37.67
2022-09-15T00:10:58.366Z,28.10
2022-09-15T00:13:25.981Z,35.22
2022-09-15T00:15:53.673Z,29.65
2022-09-15T00:18:20.873Z,32.95
2022-09-15T00:20:47.822Z,36.50
2022-09-15T00:23:16.525Z,34.67
2022-09-15T00:25:45.703Z,32.03
2022-09-15T00:28:13.746Z,24.65
2022-09-15T00:30:46.558Z,22.92
2022-09-15T00:33:15.066Z,35.35
2022-09-15T00:35:44.242Z,29.27
2022-09-15T00:38:12.518Z,33.08
2022-09-15T00:40:45.527Z,30.83
2022-09-15T00:43:13.956Z,33.58
2022-09-15T00:45:41.099Z,30.58
2022-09-15T00:48:15.010Z,29.75
2022-09-15T00:50:45.181Z,37.17
2022-09-15T00:53:14.003Z,34.00
2022-09-15T00:55:47.959Z,33.47
2022-09-15T00:58:30.728Z,32.83
2022-09-15T01:01:00.898Z,34.97
2022-09-15T01:03:32.507Z,33.83
2022-09-15T01:06:22.016Z,33.78
2022-09-15T01:08:57.055Z,39.47
2022-09-15T01:11:26.605Z,32.75
2022-09-15T01:13:53.355Z,28.23
2022-09-15T01:16:49.204Z,32.70
2022-09-15T01:19:24.778Z,32.63
2022-09-15T01:22:10.735Z,32.47
2022-09-15T01:24:48.576Z,35.38
2022-09-15T01:27:43.957Z,31.38
2022-09-15T01:30:21.269Z,39.42
2022-09-15T01:33:06.589Z,45.97
2022-09-15T01:35:47.280Z,38.03
2022-09-15T01:38:21.551Z,36.10
2022-09-15T01:41:03.815Z,32.75
2022-09-15T01:43:32.992Z,32.35
2022-09-15T01:46:01.206Z,37.85
2022-09-15T01:48:29.630Z,51.08
2022-09-15T01:51:00.351Z,35.13
2022-09-15T01:53:28.008Z,35.63
2022-09-15T01:55:54.929Z,32.97
2022-09-15T01:58:23.026Z,42.65
2022-09-15T02:01:11.273Z,38.03
2022-09-15T02:04:01.128Z,37.60
2022-09-15T02:06:37.305Z,40.42
2022-09-15T02:09:28.702Z,35.25
2022-09-15T02:12:08.527Z,48.08
2022-09-15T02:15:08.945Z,49.05
2022-09-15T02:17:42.582Z,39.53
2022-09-15T02:20:17.769Z,33.15
2022-09-15T02:22:49.623Z,40.63
2022-09-15T02:25:28.996Z,32.92
2022-09-15T02:28:00.932Z,44.15
2022-09-15T02:30:31.694Z,37.03
2022-09-15T02:33:03.251Z,44.50
2022-09-15T02:35:34.871Z,36.20
2022-09-15T02:38:05.283Z,37.30
2022-09-15T02:40:32.867Z,37.22
2022-09-15T02:45:31.781Z,45.45
2022-09-15T02:47:58.992Z,34.92
2022-09-15T02:50:26.909Z,39.08
2022-09-15T02:52:55.088Z,39.38
2022-09-15T02:55:22.717Z,40.42
2022-09-15T03:00:19.932Z,42.42
2022-09-15T03:02:52.152Z,49.15
2022-09-15T03:05:21.702Z,37.25
2022-09-15T03:07:49.054Z,57.97
2022-09-15T03:10:16.083Z,35.28
2022-09-15T03:12:45.540Z,44.42
2022-09-15T03:15:14.494Z,37.60
2022-09-15T03:17:43.599Z,51.47
2022-09-15T03:20:13.042Z,42.72
2022-09-15T03:22:39.819Z,38.60
2022-09-15T03:25:07.694Z,35.67
2022-09-15T03:27:35.401Z,45.55
2022-09-15T03:30:02.683Z,43.30
2022-09-15T03:32:29.415Z,38.75
2022-09-15T03:34:58.578Z,34.30
2022-09-15T03:37:26.319Z,38.88
2022-09-15T03:39:53.302Z,41.72
2022-09-15T03:42:20.261Z,36.65
2022-09-15T03:44:47.139Z,32.83
2022-09-15T03:47:13.869Z,51.15
2022-09-15T03:49:40.707Z,43.13
2022-09-15T03:52:07.407Z,38.38
2022-09-15T03:54:35.388Z,42.93
2022-09-15T03:57:03.223Z,45.67
2022-09-15T03:59:29.904Z,40.00
2022-09-15T04:01:56.744Z,42.23
2022-09-15T04:04:23.518Z,38.38
2022-09-15T04:06:50.264Z,34.55
2022-09-15T04:09:17.006Z,34.70
2022-09-15T04:11:43.684Z,43.70
2022-09-15T04:14:10.421Z,50.60
2022-09-15T04:16:37.214Z,36.80
2022-09-15T04:19:03.987Z,33.35
2022-09-15T04:21:31.960Z,30.50
2022-09-15T04:23:58.697Z,33.55
2022-09-15T04:26:31.908Z,31.93
2022-09-15T04:29:03.603Z,45.97
2022-09-15T04:31:32.044Z,37.97
2022-09-15T04:33:59.433Z,41.47
2022-09-15T04:36:28.350Z,37.10
2022-09-15T04:38:56.209Z,40.15
2022-09-15T04:41:25.781Z,38.45
2022-09-15T04:43:52.901Z,43.60
2022-09-15T04:46:20.112Z,43.03
2022-09-15T04:48:48.879Z,41.72
2022-09-15T04:51:20.299Z,31.73
2022-09-15T04:53:47.724Z,34.88
2022-09-15T04:56:23.111Z,32.35
2022-09-15T04:58:59.473Z,36.60
2022-09-15T05:01:32.593Z,34.90
2022-09-15T05:04:03.808Z,38.67
2022-09-15T05:06:32.195Z,41.28
2022-09-15T05:08:58.952Z,45.35
2022-09-15T05:11:26.520Z,39.47
2022-09-15T05:18:51.227Z,35.28
2022-09-15T05:21:19.556Z,38.92
2022-09-15T05:23:48.620Z,38.38
2022-09-15T05:26:21.284Z,35.03
2022-09-15T05:28:48.361Z,35.88
2022-09-15T05:31:23.670Z,41.97
2022-09-15T05:33:52.601Z,44.22
2022-09-15T05:36:23.679Z,40.83
2022-09-15T05:38:51.137Z,41.55
2022-09-15T05:46:18.023Z,37.67
2022-09-15T05:48:46.042Z,44.58
2022-09-15T05:51:14.174Z,40.50
2022-09-15T05:53:43.615Z,46.42
2022-09-15T05:56:13.066Z,35.17
2022-09-15T05:58:42.078Z,43.90
2022-09-15T06:01:13.256Z,34.15
2022-09-15T06:03:40.718Z,38.90
2022-09-15T06:06:07.853Z,41.63
2022-09-15T06:08:38.541Z,37.45
2022-09-15T06:11:12.387Z,42.90
2022-09-15T06:13:40.146Z,43.72
2022-09-15T06:16:13.310Z,35.17
2022-09-15T06:18:41.549Z,40.33
2022-09-15T06:21:11.101Z,35.00
2022-09-15T06:23:39.104Z,36.63
2022-09-15T06:26:14.221Z,47.63
2022-09-15T06:28:47.119Z,42.85
2022-09-15T06:31:15.338Z,48.88
2022-09-15T06:33:47.408Z,34.85
2022-09-15T06:36:15.617Z,56.88
2022-09-15T06:38:43.260Z,58.30
2022-09-15T06:41:10.545Z,27.42
2022-09-15T06:43:38.394Z,41.65
2022-09-15T06:46:07.792Z,37.53
2022-09-15T06:48:35.533Z,35.65
2022-09-15T06:51:04.526Z,32.10
2022-09-15T06:53:33.470Z,27.50
2022-09-15T06:56:09.594Z,32.88
2022-09-15T06:58:37.996Z,29.58
2022-09-15T07:01:10.496Z,30.65
2022-09-15T07:03:39.045Z,27.83
2022-09-15T07:06:07.565Z,30.10
2022-09-15T07:08:34.697Z,23.38
2022-09-15T07:11:04.050Z,29.15
2022-09-15T07:13:30.863Z,37.08
2022-09-15T07:16:00.049Z,28.33
2022-09-15T07:18:27.782Z,32.42
2022-09-15T07:21:00.041Z,19.77
2022-09-15T07:23:27.236Z,24.25
2022-09-15T07:26:08.727Z,21.92
2022-09-15T07:28:36.414Z,27.33
2022-09-15T07:33:32.185Z,20.27
2022-09-15T07:36:00.625Z,24.08
2022-09-15T07:38:27.596Z,20.33
2022-09-15T07:40:54.600Z,24.23
2022-09-15T07:43:21.396Z,17.70
2022-09-15T07:45:48.346Z,21.55
2022-09-15T07:48:15.407Z,17.35
2022-09-15T07:50:45.826Z,20.02
2022-09-15T07:53:12.728Z,22.27
2022-09-15T07:55:39.519Z,17.33
2022-09-15T07:58:06.454Z,14.80
2022-09-15T08:00:34.916Z,30.98
2022-09-15T08:03:01.732Z,22.15
2022-09-15T08:05:28.888Z,31.23
2022-09-15T08:07:56.296Z,23.42
2022-09-15T08:10:25.177Z,21.30
2022-09-15T08:12:52.738Z,22.15
2022-09-15T08:17:46.615Z,21.58
2022-09-15T08:20:13.945Z,19.08
2022-09-15T08:22:42.266Z,20.92
2022-09-15T08:25:09.529Z,20.80
2022-09-15T08:27:36.477Z,15.82
2022-09-15T08:30:05.442Z,20.73
2022-09-15T08:32:32.599Z,13.73
2022-09-15T08:34:59.732Z,13.57
2022-09-15T08:37:26.803Z,15.55
2022-09-15T08:39:55.093Z,19.27
2022-09-15T08:42:24.077Z,16.27
2022-09-15T08:45:12.932Z,16.90
2022-09-15T08:47:44.736Z,17.60
2022-09-15T08:50:20.671Z,22.02
2022-09-15T08:52:52.980Z,13.43
2022-09-15T08:55:41.458Z,12.52
2022-09-15T08:58:18.247Z,17.15
2022-09-15T09:00:49.017Z,24.08
2022-09-15T09:03:30.705Z,17.02
2022-09-15T09:06:03.390Z,14.30
2022-09-15T09:08:36.097Z,10.32
2022-09-15T09:11:30.426Z,22.23
2022-09-15T09:14:24.781Z,18.00
2022-09-15T09:17:23.013Z,15.82
2022-09-15T09:20:48.311Z,9.00
2022-09-15T09:23:19.776Z,11.75
2022-09-15T09:25:47.513Z,6.35
2022-09-15T09:28:23.363Z,9.27
2022-09-15T09:30:50.471Z,9.82
2022-09-15T09:33:41.800Z,13.73
2022-09-15T09:36:12.295Z,15.30
2022-09-15T09:38:45.104Z,11.60
2022-09-15T09:41:16.724Z,10.32
2022-09-15T09:43:46.772Z,11.60
2022-09-15T09:46:16.221Z,9.77
2022-09-15T09:49:20.892Z,18.17
2022-09-15T09:51:52.188Z,15.73
2022-09-15T09:54:21.941Z,5.65
2022-09-15T09:56:50.145Z,9.07
2022-09-15T09:59:35.912Z,7.20
2022-09-15T10:02:12.009Z,22.17
2022-09-15T10:04:39.944Z,2.65
2022-09-15T10:07:08.577Z,6.88
2022-09-15T10:09:37.255Z,6.80
2022-09-15T10:12:05.586Z,13.93
2022-09-15T10:14:36.590Z,7.35
2022-09-15T10:17:12.585Z,3.88
2022-09-15T10:19:57.189Z,10.18
2022-09-15T10:22:37.071Z,3.13
2022-09-15T10:25:23.687Z,9.32
2022-09-15T10:28:14.303Z,5.68
2022-09-15T10:31:16.013Z,10.70
2022-09-15T10:33:47.705Z,9.93
2022-09-15T10:36:30.799Z,2.03
2022-09-15T10:39:27.482Z,10.63
2022-09-15T10:42:36.098Z,5.25
2022-09-15T10:45:24.599Z,3.38
2022-09-15T10:48:16.706Z,2.25
2022-09-15T10:51:02.638Z,5.22
2022-09-15T10:53:42.583Z,2.70
2022-09-15T10:56:33.855Z,4.50
2022-09-15T10:59:23.125Z,1.90
2022-09-15T11:02:11.275Z,0.35
2022-09-15T11:05:21.964Z,1.58
2022-09-15T11:08:26.398Z,3.65
2022-09-15T11:11:13.262Z,2.30
2022-09-15T11:14:01.228Z,4.00
2022-09-15T11:16:47.058Z,6.63
2022-09-15T11:19:29.977Z,4.72
2022-09-15T11:22:03.509Z,1.15
2022-09-15T11:24:46.342Z,2.25
2022-09-15T11:27:49.214Z,3.63
2022-09-15T11:30:22.118Z,4.13
2022-09-15T11:33:04.342Z,8.70
2022-09-15T11:35:56.454Z,0.85
2022-09-15T11:38:56.170Z,4.68
2022-09-15T11:41:56.532Z,3.10
2022-09-15T11:44:30.675Z,2.65
2022-09-15T11:47:03.355Z,0.50
2022-09-15T11:49:33.413Z,2.65
2022-09-15T11:52:14.831Z,4.32
2022-09-15T11:55:05.585Z,3.40
2022-09-15T11:57:43.144Z,4.05
2022-09-15T12:00:13.615Z,4.20
2022-09-15T12:03:18.365Z,5.97
2022-09-15T12:05:52.581Z,5.75
2022-09-15T12:08:27.393Z,2.05
2022-09-15T12:10:56.753Z,4.15
2022-09-15T12:13:25.421Z,4.20
2022-09-15T12:15:53.754Z,7.72
2022-09-15T12:18:39.332Z,3.30
2022-09-15T12:21:30.944Z,6.07
2022-09-15T12:24:05.477Z,5.38
2022-09-15T12:26:33.904Z,0.93
2022-09-15T12:29:24.901Z,4.00
2022-09-15T12:32:16.813Z,6.88
2022-09-15T12:35:14.575Z,2.00
2022-09-15T12:38:00.609Z,4.07
2022-09-15T12:40:30.634Z,0.52
2022-09-15T12:42:57.795Z,5.63
2022-09-15T12:45:28.639Z,6.47
2022-09-15T12:48:02.703Z,4.53
2022-09-15T12:50:32.171Z,3.88
2022-09-15T12:53:03.510Z,6.72
2022-09-15T12:55:35.333Z,8.70
2022-09-15T12:58:15.398Z,7.40
2022-09-15T13:01:00.655Z,2.65
2022-09-15T13:03:51.229Z,2.25
2022-09-15T13:09:02.136Z,2.00
2022-09-15T13:11:48.089Z,4.63
2022-09-15T13:14:28.062Z,4.70
2022-09-15T13:17:06.557Z,5.22
2022-09-15T13:19:33.385Z,4.13
2022-09-15T13:22:06.294Z,3.10
2022-09-15T13:24:45.783Z,6.55
2022-09-15T13:27:14.775Z,2.97
2022-09-15T13:30:08.473Z,5.32
2022-09-15T13:33:06.476Z,8.18
2022-09-15T13:35:55.739Z,2.67
2022-09-15T13:38:41.151Z,5.93
2022-09-15T13:41:37.205Z,4.63
2022-09-15T13:44:42.640Z,3.65
2022-09-15T13:47:39.596Z,3.08
2022-09-15T13:52:57.112Z,7.10
2022-09-15T13:55:27.919Z,2.38
2022-09-15T14:00:48.226Z,3.17
2022-09-15T14:03:23.930Z,7.60
2022-09-15T14:05:51.522Z,5.72
2022-09-15T14:08:27.230Z,2.45
2022-09-15T14:10:56.208Z,5.57
2022-09-15T14:13:26.628Z,4.18
2022-09-15T14:16:04.181Z,12.00
2022-09-15T14:18:42.104Z,5.45
2022-09-15T14:21:21.391Z,6.28
2022-09-15T14:23:51.446Z,2.20
2022-09-15T14:26:22.444Z,6.00
2022-09-15T14:29:01.409Z,3.55
2022-09-15T14:31:35.603Z,2.88
2022-09-15T14:34:05.915Z,5.72
2022-09-15T14:36:34.422Z,5.30
2022-09-15T14:39:09.055Z,4.15
2022-09-15T14:41:36.980Z,5.82
2022-09-15T14:47:21.508Z,10.23
2022-09-15T14:49:48.774Z,3.95
2022-09-15T14:52:27.064Z,3.25
2022-09-15T14:55:00.606Z,6.10
2022-09-15T14:57:31.426Z,3.10
2022-09-15T15:00:06.977Z,7.32
2022-09-15T15:02:50.102Z,3.50
2022-09-15T15:05:32.866Z,1.55
2022-09-15T15:08:06.764Z,3.85
2022-09-15T15:10:36.759Z,7.68
2022-09-15T15:13:09.806Z,1.60
2022-09-15T15:15:38.237Z,1.25
2022-09-15T15:18:30.901Z,2.38
2022-09-15T15:20:58.991Z,17.15
2022-09-15T15:23:27.207Z,4.78
2022-09-15T15:26:14.427Z,6.82
2022-09-15T15:28:41.283Z,5.95
2022-09-15T15:31:25.768Z,6.93
2022-09-15T15:33:55.802Z,6.28
2022-09-15T15:36:24.825Z,9.00
2022-09-15T15:38:55.661Z,19.55
2022-09-15T15:41:28.697Z,4.70
2022-09-15T15:44:09.102Z,2.63
2022-09-15T15:46:51.281Z,7.97
2022-09-15T15:49:20.972Z,4.53
2022-09-15T15:51:48.752Z,1.85
2022-09-15T15:54:15.946Z,2.97
2022-09-15T15:56:43.110Z,5.00
2022-09-15T15:59:12.893Z,2.47
2022-09-15T16:01:40.221Z,5.97
2022-09-15T16:04:07.392Z,4.13
2022-09-15T16:06:34.848Z,2.30
2022-09-15T16:11:29.265Z,4.53
2022-09-15T16:13:56.451Z,3.45
2022-09-15T16:16:25.995Z,4.32
2022-09-15T16:18:53.805Z,3.30
2022-09-15T16:21:36.942Z,5.10
2022-09-15T16:24:06.920Z,2.35
2022-09-15T16:26:35.602Z,6.60
2022-09-15T16:29:02.706Z,3.30
2022-09-15T16:31:30.268Z,4.95
2022-09-15T16:33:59.934Z,6.65
2022-09-15T16:36:27.224Z,2.85
2022-09-15T16:38:54.347Z,2.83
2022-09-15T16:41:23.792Z,6.30
2022-09-15T16:43:50.734Z,3.38
2022-09-15T16:46:17.832Z,8.98
2022-09-15T16:48:47.115Z,2.58
2022-09-15T16:51:31.786Z,1.20
2022-09-15T16:53:59.227Z,2.08
2022-09-15T16:56:27.134Z,3.08
2022-09-15T16:58:59.566Z,3.13
2022-09-15T17:01:27.063Z,2.35
2022-09-15T17:03:54.128Z,4.38
2022-09-15T17:06:23.100Z,2.88
2022-09-15T17:08:50.544Z,3.95
2022-09-15T17:13:46.028Z,1.35
2022-09-15T17:16:15.593Z,4.53
2022-09-15T17:18:47.017Z,9.02
2022-09-15T17:21:20.603Z,3.75
2022-09-15T17:23:49.676Z,2.75
2022-09-15T17:26:23.961Z,5.55
2022-09-15T17:28:52.903Z,5.45
2022-09-15T17:31:22.759Z,0.43
2022-09-15T17:33:50.864Z,7.90
2022-09-15T17:36:18.653Z,5.22
2022-09-15T17:38:46.056Z,12.43
2022-09-15T17:43:41.978Z,2.10
2022-09-15T17:46:09.157Z,3.05
2022-09-15T17:48:42.097Z,8.98
2022-09-15T17:51:19.894Z,2.67
2022-09-15T17:53:49.871Z,3.88
2022-09-15T17:56:23.838Z,9.90
2022-09-15T17:58:50.770Z,6.25
2022-09-15T18:01:17.915Z,6.43
2022-09-15T18:06:12.333Z,2.55
2022-09-15T18:08:39.324Z,8.98
2022-09-15T18:11:07.356Z,7.68
2022-09-15T18:13:37.964Z,4.72
2022-09-15T18:16:11.373Z,8.80
2022-09-15T18:18:40.626Z,3.60
2022-09-15T18:21:09.827Z,6.35
2022-09-15T18:23:37.961Z,2.92
2022-09-15T18:26:05.038Z,7.90
2022-09-15T18:28:32.000Z,5.88
2022-09-15T18:31:01.558Z,8.88
2022-09-15T18:33:29.016Z,6.95
2022-09-15T18:35:59.173Z,4.78
2022-09-15T18:38:26.192Z,7.68
2022-09-15T18:40:55.820Z,7.95
2022-09-15T18:43:25.296Z,5.93
2022-09-15T18:45:55.003Z,8.70
2022-09-15T18:48:22.041Z,6.47
2022-09-15T18:50:49.434Z,7.75
2022-09-15T18:53:16.381Z,6.20
2022-09-15T18:55:43.839Z,3.72
2022-09-15T18:58:12.432Z,3.03
2022-09-15T19:00:45.396Z,5.28
2022-09-15T19:03:14.051Z,6.80
2022-09-15T19:05:41.637Z,15.23
2022-09-15T19:08:09.250Z,6.90
2022-09-15T19:10:38.266Z,10.05
2022-09-15T19:13:11.307Z,4.03
2022-09-15T19:15:41.799Z,10.65
2022-09-15T19:18:09.073Z,5.85
2022-09-15T19:20:36.195Z,12.48
2022-09-15T19:23:03.087Z,10.07
2022-09-15T19:25:30.040Z,19.50
2022-09-15T19:27:56.997Z,5.10
2022-09-15T19:30:24.083Z,10.00
2022-09-15T19:32:52.534Z,4.53
2022-09-15T19:35:19.569Z,4.53
2022-09-15T19:37:46.473Z,14.18
2022-09-15T19:40:15.237Z,14.27
2022-09-15T19:42:44.245Z,5.75
2022-09-15T19:45:12.619Z,10.05
2022-09-15T19:47:40.309Z,7.68
2022-09-15T19:52:36.482Z,10.82
2022-09-15T19:55:06.704Z,5.97
2022-09-15T19:57:38.844Z,10.05
2022-09-15T20:00:08.829Z,14.13
2022-09-15T20:02:36.143Z,11.02
2022-09-15T20:05:03.870Z,16.10
2022-09-15T20:07:32.952Z,9.60
2022-09-15T20:10:00.003Z,7.90
2022-09-15T20:12:27.455Z,12.77
2022-09-15T20:14:54.489Z,8.30
2022-09-15T20:17:21.664Z,14.32
2022-09-15T20:19:48.757Z,6.28
2022-09-15T20:22:17.264Z,9.00
2022-09-15T20:24:44.400Z,8.57
2022-09-15T20:27:14.313Z,2.03
2022-09-15T20:29:41.724Z,6.72
2022-09-15T20:32:08.699Z,10.60
2022-09-15T20:34:35.697Z,6.80
2022-09-15T20:37:02.669Z,3.15
2022-09-15T20:39:29.709Z,9.82
2022-09-15T20:41:57.716Z,4.75
2022-09-15T20:44:24.805Z,2.38
2022-09-15T20:46:51.836Z,8.57
2022-09-15T20:49:18.935Z,4.50
2022-09-15T20:51:46.285Z,5.65
2022-09-15T20:54:13.327Z,13.55
2022-09-15T20:56:40.367Z,10.80
2022-09-15T20:59:10.238Z,7.28
2022-09-15T21:01:39.148Z,4.43
2022-09-15T21:04:10.253Z,9.27
2022-09-15T21:06:37.618Z,8.02
2022-09-15T21:09:05.348Z,7.80
2022-09-15T21:11:32.628Z,10.38
2022-09-15T21:13:59.679Z,6.13
2022-09-15T21:16:30.412Z,4.85
2022-09-15T21:18:58.853Z,7.40
2022-09-15T21:21:29.941Z,4.35
2022-09-15T21:24:04.797Z,7.88
2022-09-15T21:27:00.992Z,12.82
2022-09-15T21:29:30.074Z,4.90
2022-09-15T21:31:57.994Z,10.57
2022-09-15T21:34:26.506Z,11.73
2022-09-15T21:36:53.973Z,9.15
2022-09-15T21:39:21.602Z,7.10
2022-09-15T21:41:54.606Z,1.73
2022-09-15T21:44:22.063Z,4.20
2022-09-15T21:46:49.346Z,12.50
2022-09-15T21:49:18.205Z,13.13
2022-09-15T21:51:51.374Z,5.25
2022-09-15T21:54:18.658Z,7.72
2022-09-15T21:56:48.389Z,1.40
2022-09-15T21:59:21.631Z,3.40
2022-09-15T22:01:49.231Z,11.02
2022-09-15T22:04:16.576Z,8.45
2022-09-15T22:06:43.846Z,6.97
2022-09-15T22:09:21.887Z,7.43
2022-09-15T22:11:49.315Z,3.85
2022-09-15T22:14:19.479Z,2.47
2022-09-15T22:16:46.685Z,8.80
2022-09-15T22:19:14.074Z,7.00
2022-09-15T22:21:42.052Z,1.90
2022-09-15T22:24:12.782Z,5.63
2022-09-15T22:26:42.647Z,6.43
2022-09-15T22:29:10.012Z,4.68
2022-09-15T22:31:37.511Z,6.20
2022-09-15T22:34:04.825Z,5.35
2022-09-15T22:36:32.741Z,8.40
2022-09-15T22:39:04.666Z,5.85
2022-09-15T22:41:34.961Z,4.60
2022-09-15T22:44:03.203Z,7.13
2022-09-15T22:46:30.144Z,7.93
2022-09-15T22:48:57.591Z,7.90
2022-09-15T22:51:24.856Z,4.30
2022-09-15T22:53:56.813Z,4.75
2022-09-15T22:56:26.228Z,7.82
2022-09-15T22:58:55.820Z,1.70
2022-09-15T23:01:28.022Z,6.22
2022-09-15T23:04:01.282Z,3.53
2022-09-15T23:06:31.500Z,6.75
2022-09-15T23:09:01.043Z,6.30
2022-09-15T23:11:29.558Z,11.45
2022-09-15T23:13:56.551Z,8.50
2022-09-15T23:16:25.101Z,3.33
2022-09-15T23:18:53.318Z,4.30
2022-09-15T23:21:20.986Z,5.85
2022-09-15T23:23:53.017Z,6.85
2022-09-15T23:26:22.395Z,7.18
2022-09-15T23:28:49.527Z,4.50
2022-09-15T23:31:18.074Z,11.35
2022-09-15T23:33:45.692Z,2.85
2022-09-15T23:36:14.895Z,5.85
2022-09-15T23:38:45.318Z,2.78
2022-09-15T23:41:13.831Z,6.40
2022-09-15T23:43:41.264Z,7.65
2022-09-15T23:46:08.741Z,7.40
2022-09-15T23:48:35.998Z,2.25
2022-09-15T23:51:05.628Z,3.95
2022-09-15T23:53:33.022Z,7.53
2022-09-15T23:55:59.964Z,8.57
2022-09-15T23:58:31.619Z,9.98
